createdAt,value
2023-01-19T00:03:51.626Z,92.22
2023-01-19T00:07:18.051Z,92.37
2023-01-19T00:10:57.097Z,91.94
2023-01-19T00:14:51.863Z,91.52
2023-01-19T00:18:18.711Z,91.31
2023-01-19T00:21:56.285Z,91.01
2023-01-19T00:25:33.284Z,91.07
2023-01-19T00:29:32.769Z,91.13
2023-01-19T00:33:00.600Z,91.80
2023-01-19T00:36:34.713Z,91.53
2023-01-19T00:40:15.764Z,91.47
2023-01-19T00:43:49.445Z,91.84
2023-01-19T00:47:27.755Z,92.14
2023-01-19T00:51:05.094Z,92.50
2023-01-19T00:55:02.744Z,92.22
2023-01-19T00:58:27.462Z,91.90
2023-01-19T01:02:04.345Z,92.13
2023-01-19T01:06:03.102Z,92.30
2023-01-19T01:09:26.618Z,92.17
2023-01-19T01:13:21.006Z,92.00
2023-01-19T01:16:48.429Z,92.58
2023-01-19T01:20:28.024Z,92.81
2023-01-19T01:24:04.112Z,92.88
2023-01-19T01:27:41.272Z,92.33
2023-01-19T01:31:17.917Z,92.08
2023-01-19T01:35:16.043Z,91.64
2023-01-19T01:38:41.380Z,91.83
2023-01-19T01:42:20.206Z,91.83
2023-01-19T01:46:17.606Z,91.90
2023-01-19T01:49:41.426Z,92.06
2023-01-19T01:53:41.228Z,92.14
2023-01-19T01:57:12.325Z,92.58
2023-01-19T02:01:08.274Z,93.01
2023-01-19T02:05:02.042Z,93.08
2023-01-19T02:09:00.226Z,93.26
2023-01-19T02:12:47.262Z,92.93
2023-01-19T02:16:33.980Z,92.70
2023-01-19T02:19:58.467Z,92.06
2023-01-19T02:24:02.059Z,92.00
2023-01-19T02:27:45.411Z,91.96
2023-01-19T02:31:13.081Z,91.81
2023-01-19T02:34:47.571Z,92.07
2023-01-19T02:38:28.561Z,92.01
2023-01-19T02:42:09.390Z,91.84
2023-01-19T02:46:00.944Z,91.84
2023-01-19T02:49:45.263Z,91.94
2023-01-19T02:53:35.217Z,92.05
2023-01-19T02:57:39.406Z,92.04
2023-01-19T03:01:45.438Z,91.86
2023-01-19T03:05:37.672Z,91.76
2023-01-19T03:09:40.783Z,91.31
2023-01-19T03:13:42.023Z,91.27
2023-01-19T03:17:12.830Z,91.01
2023-01-19T03:20:46.104Z,90.82
2023-01-19T03:24:45.614Z,91.25
2023-01-19T03:28:10.138Z,91.44
2023-01-19T03:31:52.391Z,91.24
2023-01-19T03:35:30.578Z,91.38
2023-01-19T03:39:24.996Z,91.08
2023-01-19T03:42:53.034Z,91.15
2023-01-19T03:46:30.468Z,91.33
2023-01-19T03:50:11.663Z,91.64
2023-01-19T03:53:43.308Z,92.00
2023-01-19T03:57:39.201Z,92.61
2023-01-19T04:01:04.312Z,92.99
2023-01-19T04:04:40.770Z,92.99
2023-01-19T04:08:40.764Z,92.54
2023-01-19T04:12:06.010Z,91.98
2023-01-19T04:15:45.661Z,91.75
2023-01-19T04:19:39.743Z,91.60
2023-01-19T04:23:23.434Z,91.46
2023-01-19T04:26:47.065Z,91.83
2023-01-19T04:30:26.558Z,92.63
2023-01-19T04:34:04.070Z,93.02
2023-01-19T04:37:42.823Z,93.39
2023-01-19T04:41:36.798Z,92.94
2023-01-19T04:45:02.795Z,92.18
2023-01-19T04:49:01.438Z,91.67
2023-01-19T04:52:27.605Z,91.72
2023-01-19T04:56:22.454Z,92.15
2023-01-19T04:59:46.831Z,92.51
2023-01-19T05:03:42.938Z,92.64
2023-01-19T05:07:09.138Z,92.53
2023-01-19T05:10:44.311Z,92.54
2023-01-19T05:14:22.506Z,92.56
2023-01-19T05:18:18.678Z,92.34
2023-01-19T05:21:44.483Z,92.24
2023-01-19T05:25:20.473Z,92.28
2023-01-19T05:28:58.876Z,92.37
2023-01-19T05:32:37.179Z,92.48
2023-01-19T05:36:14.955Z,92.30
2023-01-19T05:39:50.958Z,92.15
2023-01-19T05:43:28.908Z,91.78
2023-01-19T05:47:25.670Z,92.08
2023-01-19T05:50:50.448Z,92.15
2023-01-19T05:54:28.827Z,92.07
2023-01-19T05:58:24.280Z,92.57
2023-01-19T06:02:08.727Z,92.89
2023-01-19T06:05:54.574Z,92.46
2023-01-19T06:09:19.901Z,92.61
2023-01-19T06:12:59.280Z,92.78
2023-01-19T06:16:35.992Z,93.14
2023-01-19T06:20:33.466Z,92.89
2023-01-19T06:23:58.879Z,93.00
2023-01-19T06:27:36.511Z,93.20
2023-01-19T06:31:13.019Z,93.33
2023-01-19T06:34:53.320Z,93.38
2023-01-19T06:38:30.704Z,93.55
2023-01-19T06:42:08.064Z,93.47
2023-01-19T06:45:45.194Z,93.67
2023-01-19T06:49:21.672Z,93.80
2023-01-19T06:52:59.557Z,94.18
2023-01-19T06:56:37.771Z,94.34
2023-01-19T07:00:14.879Z,94.58
2023-01-19T07:04:13.594Z,94.28
2023-01-19T07:07:39.810Z,93.83
2023-01-19T07:11:24.688Z,93.68
2023-01-19T07:15:15.803Z,93.20
2023-01-19T07:18:42.650Z,93.58
2023-01-19T07:22:36.948Z,93.32
2023-01-19T07:26:03.870Z,93.73
2023-01-19T07:29:40.035Z,93.74
2023-01-19T07:33:35.254Z,93.88
2023-01-19T07:36:59.971Z,93.99
2023-01-19T07:41:03.222Z,94.36
2023-01-19T07:44:48.317Z,95.41
2023-01-19T07:48:12.743Z,95.35
2023-01-19T07:51:50.315Z,95.84
2023-01-19T07:55:48.965Z,95.24
2023-01-19T07:59:13.330Z,95.11
2023-01-19T08:02:53.555Z,96.21
2023-01-19T08:06:42.418Z,96.87
2023-01-19T08:10:11.194Z,97.40
2023-01-19T08:14:07.747Z,98.34
2023-01-19T08:17:34.195Z,99.87
2023-01-19T08:21:32.018Z,99.97
2023-01-19T08:25:16.721Z,100.00
2023-01-19T08:28:41.084Z,99.87
2023-01-19T08:32:20.257Z,100.00
2023-01-19T08:36:00.169Z,100.00
2023-01-19T08:39:36.704Z,100.00
2023-01-19T08:43:15.519Z,100.00
2023-01-19T08:46:49.557Z,100.00
2023-01-19T08:50:29.027Z,100.00
2023-01-19T08:54:25.371Z,100.00
2023-01-19T08:57:54.879Z,100.00
2023-01-19T09:01:50.654Z,100.00
2023-01-19T09:05:15.099Z,100.00
2023-01-19T09:08:52.694Z,100.00
2023-01-19T09:12:50.377Z,100.00
2023-01-19T09:16:19.999Z,100.00
2023-01-19T09:20:14.401Z,100.00
2023-01-19T09:23:39.504Z,100.00
2023-01-19T09:27:35.740Z,99.99
2023-01-19T09:31:00.087Z,100.00
2023-01-19T09:38:56.914Z,100.00
2023-01-19T09:42:52.854Z,99.99
2023-01-19T09:46:27.350Z,99.96
2023-01-19T09:50:27.141Z,100.00
2023-01-19T09:54:03.896Z,100.00
2023-01-19T09:57:49.648Z,100.00
2023-01-19T10:01:53.446Z,99.98
2023-01-19T10:05:19.156Z,99.98
2023-01-19T10:09:11.295Z,99.98
2023-01-19T10:13:21.494Z,100.00
2023-01-19T10:17:30.468Z,100.00
2023-01-19T10:21:20.618Z,100.00
2023-01-19T10:24:50.290Z,100.00
2023-01-19T10:28:25.844Z,99.98
2023-01-19T10:32:35.926Z,100.00
2023-01-19T10:36:37.360Z,100.00
2023-01-19T10:40:10.788Z,100.00
2023-01-19T10:44:04.821Z,100.00
2023-01-19T10:47:53.678Z,100.00
2023-01-19T10:51:47.678Z,100.00
2023-01-19T10:55:30.170Z,100.00
2023-01-19T10:59:37.823Z,100.00
2023-01-19T11:03:29.213Z,100.00
2023-01-19T11:07:13.352Z,100.00
2023-01-19T11:11:08.065Z,100.00
2023-01-19T11:14:51.509Z,100.00
2023-01-19T11:18:28.764Z,100.00
2023-01-19T11:22:21.862Z,100.00
2023-01-19T11:25:48.987Z,100.00
2023-01-19T11:29:26.669Z,100.00
2023-01-19T11:33:26.360Z,100.00
2023-01-19T11:37:15.262Z,100.00
2023-01-19T11:40:41.929Z,100.00
2023-01-19T11:44:20.342Z,100.00
2023-01-19T11:47:56.801Z,100.00
2023-01-19T11:52:12.140Z,100.00
2023-01-19T11:56:16.490Z,100.00
2023-01-19T11:59:42.587Z,100.00
2023-01-19T12:03:48.816Z,100.00
2023-01-19T12:07:18.898Z,100.00
2023-01-19T12:10:53.081Z,100.00
2023-01-19T12:15:00.188Z,100.00
2023-01-19T12:18:49.029Z,100.00
2023-01-19T12:22:16.987Z,100.00
2023-01-19T12:25:58.684Z,100.00
2023-01-19T12:29:49.862Z,100.00
2023-01-19T12:33:24.150Z,100.00
2023-01-19T12:36:52.557Z,100.00
2023-01-19T12:40:50.334Z,100.00
2023-01-19T12:44:34.453Z,100.00
2023-01-19T12:48:26.547Z,100.00
2023-01-19T12:52:30.195Z,100.00
2023-01-19T12:56:06.086Z,100.00
2023-01-19T13:00:00.984Z,100.00
2023-01-19T13:04:27.138Z,100.00
2023-01-19T13:08:13.276Z,100.00
2023-01-19T13:12:16.673Z,100.00
2023-01-19T13:15:44.751Z,100.00
2023-01-19T13:19:37.125Z,100.00
2023-01-19T13:23:26.923Z,100.00
2023-01-19T13:27:12.898Z,100.00
2023-01-19T13:31:01.983Z,99.96
2023-01-19T13:34:59.627Z,99.97
2023-01-19T13:38:42.724Z,99.96
2023-01-19T13:42:43.960Z,100.00
2023-01-19T13:46:30.836Z,100.00
2023-01-19T13:50:27.234Z,100.00
2023-01-19T13:54:18.630Z,100.00
2023-01-19T13:57:49.421Z,100.00
2023-01-19T14:01:24.086Z,100.00
2023-01-19T14:05:25.560Z,100.00
2023-01-19T14:09:18.165Z,100.00
2023-01-19T14:12:58.156Z,100.00
2023-01-19T14:16:42.935Z,100.00
2023-01-19T14:20:27.137Z,100.00
2023-01-19T14:24:08.004Z,100.00
2023-01-19T14:27:33.507Z,100.00
2023-01-19T14:31:21.829Z,100.00
2023-01-19T14:35:04.131Z,99.97
2023-01-19T14:38:32.387Z,100.00
2023-01-19T14:42:17.723Z,99.96
2023-01-19T14:45:47.579Z,99.83
2023-01-19T14:49:38.070Z,99.81
2023-01-19T14:53:25.041Z,99.83
2023-01-19T14:56:55.063Z,99.77
2023-01-19T15:00:27.775Z,99.81
2023-01-19T15:04:27.221Z,99.80
2023-01-19T15:07:53.345Z,99.84
2023-01-19T15:11:34.027Z,99.61
2023-01-19T15:15:31.302Z,99.68
2023-01-19T15:19:18.181Z,99.59
2023-01-19T15:23:02.599Z,99.26
2023-01-19T15:26:32.352Z,99.07
2023-01-19T15:30:16.581Z,99.15
2023-01-19T15:33:43.447Z,98.92
2023-01-19T15:37:40.035Z,99.15
2023-01-19T15:41:34.883Z,99.18
2023-01-19T15:45:43.391Z,99.19
2023-01-19T15:49:27.954Z,99.15
2023-01-19T15:52:54.638Z,99.19
2023-01-19T15:56:33.028Z,99.24
2023-01-19T16:00:31.936Z,99.15
2023-01-19T16:04:02.528Z,99.45
2023-01-19T16:07:35.425Z,99.22
2023-01-19T16:11:16.038Z,98.82
2023-01-19T16:15:08.329Z,99.05
2023-01-19T16:18:51.447Z,99.02
2023-01-19T16:22:15.098Z,99.09
2023-01-19T16:26:03.308Z,98.93
2023-01-19T16:29:50.065Z,98.85
2023-01-19T16:33:35.324Z,98.84
2023-01-19T16:37:19.167Z,98.84
2023-01-19T16:40:47.022Z,98.85
2023-01-19T16:44:41.099Z,98.86
2023-01-19T16:48:06.374Z,98.93
2023-01-19T16:52:03.212Z,98.87
2023-01-19T16:55:27.251Z,98.80
2023-01-19T16:59:04.983Z,98.71
2023-01-19T17:02:45.262Z,98.96
2023-01-19T17:06:39.904Z,98.82
2023-01-19T17:10:25.344Z,98.87
2023-01-19T17:13:54.649Z,98.83
2023-01-19T17:17:48.007Z,98.93
2023-01-19T17:21:32.908Z,99.32
2023-01-19T17:24:58.076Z,99.08
2023-01-19T17:29:03.028Z,98.51
2023-01-19T17:32:28.913Z,98.55
2023-01-19T17:36:08.971Z,98.46
2023-01-19T17:39:45.136Z,98.07
2023-01-19T17:43:41.100Z,98.23
2023-01-19T17:47:26.803Z,98.05
2023-01-19T17:50:50.808Z,97.93
2023-01-19T17:54:28.107Z,97.89
2023-01-19T17:58:25.654Z,97.95
2023-01-19T18:01:52.228Z,97.84
2023-01-19T18:05:29.095Z,97.77
2023-01-19T18:09:07.107Z,97.59
2023-01-19T18:13:02.640Z,97.64
2023-01-19T18:16:30.811Z,97.81
2023-01-19T18:20:08.109Z,97.79
2023-01-19T18:24:04.753Z,97.74
2023-01-19T18:27:31.115Z,97.78
2023-01-19T18:31:08.787Z,98.06
2023-01-19T18:34:46.159Z,98.07
2023-01-19T18:38:22.874Z,97.86
2023-01-19T18:42:00.433Z,97.60
2023-01-19T18:45:40.141Z,97.54
2023-01-19T18:49:34.207Z,97.72
2023-01-19T18:53:17.256Z,97.80
2023-01-19T18:56:45.074Z,98.01
2023-01-19T19:00:39.133Z,98.12
2023-01-19T19:04:24.728Z,98.07
2023-01-19T19:07:49.728Z,97.76
2023-01-19T19:11:26.735Z,97.70
2023-01-19T19:15:05.730Z,97.47
2023-01-19T19:18:43.428Z,97.62
2023-01-19T19:22:38.152Z,97.52
2023-01-19T19:26:09.954Z,97.63
2023-01-19T19:29:41.087Z,97.64
2023-01-19T19:33:41.047Z,97.76
2023-01-19T19:37:25.956Z,97.82
2023-01-19T19:41:15.528Z,97.76
2023-01-19T19:45:01.678Z,97.73
2023-01-19T19:48:30.656Z,97.68
2023-01-19T19:52:04.017Z,97.61
2023-01-19T19:55:40.719Z,97.56
2023-01-19T19:59:18.666Z,97.38
2023-01-19T20:02:56.386Z,97.47
2023-01-19T20:06:39.104Z,97.38
2023-01-19T20:10:31.576Z,97.53
2023-01-19T20:14:15.697Z,97.51
2023-01-19T20:17:40.804Z,97.36
2023-01-19T20:21:30.871Z,97.11
2023-01-19T20:24:55.590Z,96.99
2023-01-19T20:28:34.527Z,97.03
2023-01-19T20:32:30.166Z,97.25
2023-01-19T20:35:55.597Z,97.00
2023-01-19T20:39:35.340Z,96.93
2023-01-19T20:43:14.250Z,97.20
2023-01-19T20:46:47.672Z,97.21
2023-01-19T20:50:45.219Z,97.05
2023-01-19T20:54:29.800Z,96.86
2023-01-19T20:57:55.924Z,96.71
2023-01-19T21:01:31.276Z,96.70
2023-01-19T21:05:09.289Z,96.90
2023-01-19T21:08:51.742Z,97.20
2023-01-19T21:12:44.006Z,97.08
2023-01-19T21:16:09.456Z,96.93
2023-01-19T21:20:06.876Z,96.78
2023-01-19T21:23:30.945Z,96.48
2023-01-19T21:27:28.365Z,96.25
2023-01-19T21:31:14.161Z,95.97
2023-01-19T21:34:40.823Z,95.84
2023-01-19T21:38:38.803Z,96.09
2023-01-19T21:42:05.916Z,96.01
2023-01-19T21:45:43.546Z,96.10
2023-01-19T21:49:20.089Z,95.74
2023-01-19T21:53:14.715Z,95.56
2023-01-19T21:56:59.507Z,95.65
2023-01-19T22:00:23.182Z,95.72
2023-01-19T22:04:02.634Z,95.92
2023-01-19T22:07:38.508Z,95.99
2023-01-19T22:11:19.638Z,95.90
2023-01-19T22:14:55.121Z,96.18
2023-01-19T22:18:53.773Z,96.24
2023-01-19T22:22:17.674Z,96.20
2023-01-19T22:26:01.271Z,96.49
2023-01-19T22:29:32.852Z,96.59
2023-01-19T22:33:34.106Z,96.54
2023-01-19T22:37:01.802Z,96.34
2023-01-19T22:40:41.240Z,96.10
2023-01-19T22:44:39.654Z,96.37
2023-01-19T22:48:07.351Z,95.97
2023-01-19T22:51:43.297Z,96.03
2023-01-19T22:55:40.579Z,95.83
2023-01-19T22:59:08.807Z,96.00
2023-01-19T23:02:42.927Z,95.98
2023-01-19T23:06:27.795Z,96.19
2023-01-19T23:10:19.101Z,96.17
2023-01-19T23:14:04.233Z,96.07
2023-01-19T23:17:32.115Z,95.92
2023-01-19T23:21:27.007Z,96.05
2023-01-19T23:25:10.111Z,95.62
2023-01-19T23:28:56.457Z,95.81
2023-01-19T23:32:22.896Z,95.76
2023-01-19T23:35:59.306Z,95.71
2023-01-19T23:39:57.518Z,95.80
2023-01-19T23:43:22.166Z,95.71
2023-01-19T23:47:17.688Z,95.60
2023-01-19T23:51:20.544Z,95.54
2023-01-19T23:54:45.782Z,95.55
2023-01-19T23:58:25.086Z,95.76
